createdAt,value
2018-08-28T00:01:20.960Z,19.73
2018-08-28T00:03:49.987Z,19.68
2018-08-28T00:06:18.685Z,19.64
2018-08-28T00:08:47.292Z,19.65
2018-08-28T00:11:16.016Z,19.69
2018-08-28T00:13:44.600Z,19.71
2018-08-28T00:16:13.188Z,19.73
2018-08-28T00:18:42.303Z,19.70
2018-08-28T00:21:10.860Z,19.65
2018-08-28T00:23:39.793Z,19.71
2018-08-28T00:26:08.615Z,19.70
2018-08-28T00:28:37.158Z,19.72
2018-08-28T00:31:05.768Z,19.72
2018-08-28T00:33:34.399Z,19.67
2018-08-28T00:36:02.956Z,19.62
2018-08-28T00:38:31.598Z,19.56
2018-08-28T00:41:00.288Z,19.59
2018-08-28T00:43:28.871Z,19.53
2018-08-28T00:45:57.455Z,19.53
2018-08-28T00:48:26.131Z,19.58
2018-08-28T00:50:54.715Z,19.58
2018-08-28T00:53:23.251Z,19.58
2018-08-28T00:55:51.905Z,19.55
2018-08-28T00:58:20.456Z,19.58
2018-08-28T01:00:49.012Z,19.54
2018-08-28T01:03:17.716Z,19.58
2018-08-28T01:05:46.296Z,19.60
2018-08-28T01:08:14.964Z,19.64
2018-08-28T01:10:43.595Z,19.65
2018-08-28T01:13:12.137Z,19.60
2018-08-28T01:15:40.712Z,19.56
2018-08-28T01:18:09.759Z,19.55
2018-08-28T01:20:38.320Z,19.58
2018-08-28T01:23:06.888Z,19.60
2018-08-28T01:25:35.467Z,19.62
2018-08-28T01:28:04.036Z,19.53
2018-08-28T01:30:34.516Z,19.56
2018-08-28T01:33:06.073Z,19.47
2018-08-28T01:35:35.171Z,19.39
2018-08-28T01:38:03.878Z,19.45
2018-08-28T01:40:32.449Z,19.40
2018-08-28T01:43:01.696Z,19.43
2018-08-28T01:45:30.323Z,19.43
2018-08-28T01:47:58.852Z,19.45
2018-08-28T01:50:27.491Z,19.47
2018-08-28T01:52:56.060Z,19.38
2018-08-28T01:55:24.604Z,19.17
2018-08-28T01:57:53.563Z,19.09
2018-08-28T02:00:22.124Z,19.02
2018-08-28T02:02:50.735Z,19.02
2018-08-28T02:05:19.315Z,19.06
2018-08-28T02:07:47.859Z,19.11
2018-08-28T02:10:16.424Z,19.11
2018-08-28T02:12:45.012Z,19.10
2018-08-28T02:15:13.566Z,19.09
2018-08-28T02:17:42.109Z,18.98
2018-08-28T02:20:10.959Z,18.88
2018-08-28T02:22:39.526Z,18.80
2018-08-28T02:25:08.508Z,18.72
2018-08-28T02:27:37.903Z,18.64
2018-08-28T02:30:06.513Z,18.59
2018-08-28T02:32:35.064Z,18.57
2018-08-28T02:35:03.643Z,18.55
2018-08-28T02:37:32.220Z,18.55
2018-08-28T02:40:00.784Z,18.54
2018-08-28T02:42:29.572Z,18.54
2018-08-28T02:44:58.122Z,18.52
2018-08-28T02:47:26.675Z,18.54
2018-08-28T02:49:55.263Z,18.56
2018-08-28T02:52:23.852Z,18.52
2018-08-28T02:54:52.426Z,18.52
2018-08-28T02:57:21.140Z,18.51
2018-08-28T02:59:49.704Z,18.51
2018-08-28T03:02:18.336Z,18.55
2018-08-28T03:04:47.394Z,18.56
2018-08-28T03:07:15.959Z,18.56
2018-08-28T03:09:44.539Z,18.58
2018-08-28T03:12:13.243Z,18.56
2018-08-28T03:14:41.796Z,18.56
2018-08-28T03:17:10.347Z,18.57
2018-08-28T03:19:38.987Z,18.48
2018-08-28T03:22:07.617Z,18.41
2018-08-28T03:24:36.196Z,18.33
2018-08-28T03:27:04.884Z,18.37
2018-08-28T03:29:33.445Z,18.39
2018-08-28T03:32:01.989Z,18.43
2018-08-28T03:34:30.908Z,18.39
2018-08-28T03:36:59.471Z,18.41
2018-08-28T03:39:28.043Z,18.42
2018-08-28T03:41:56.763Z,18.42
2018-08-28T03:44:25.348Z,18.42
2018-08-28T03:46:53.923Z,18.41
2018-08-28T03:49:22.583Z,18.34
2018-08-28T03:51:51.136Z,18.27
2018-08-28T03:54:19.696Z,18.23
2018-08-28T03:56:48.511Z,18.18
2018-08-28T03:59:17.079Z,18.18
2018-08-28T04:01:45.658Z,18.21
2018-08-28T04:04:14.359Z,18.24
2018-08-28T04:06:42.987Z,18.16
2018-08-28T04:09:11.803Z,18.18
2018-08-28T04:11:40.705Z,18.13
2018-08-28T04:14:09.394Z,17.94
2018-08-28T04:16:38.048Z,17.86
2018-08-28T04:19:07.167Z,17.79
2018-08-28T04:21:35.858Z,17.76
2018-08-28T04:24:04.403Z,17.68
2018-08-28T04:26:33.328Z,17.65
2018-08-28T04:29:01.949Z,17.62
2018-08-28T04:31:30.464Z,17.60
2018-08-28T04:33:59.071Z,17.55
2018-08-28T04:36:27.636Z,17.56
2018-08-28T04:38:56.227Z,17.52
2018-08-28T04:41:24.803Z,17.50
2018-08-28T04:43:53.524Z,17.41
2018-08-28T04:46:22.075Z,17.33
2018-08-28T04:48:51.074Z,17.29
2018-08-28T04:51:19.579Z,17.25
2018-08-28T04:53:48.139Z,17.27
2018-08-28T04:56:17.051Z,17.30
2018-08-28T04:58:45.587Z,17.31
2018-08-28T05:01:14.148Z,17.22
2018-08-28T05:03:43.115Z,17.15
2018-08-28T05:06:11.680Z,17.11
2018-08-28T05:08:40.358Z,17.09
2018-08-28T05:11:08.951Z,17.21
2018-08-28T05:13:37.552Z,17.26
2018-08-28T05:16:06.163Z,17.27
2018-08-28T05:18:34.932Z,17.27
2018-08-28T05:21:03.814Z,17.27
2018-08-28T05:23:32.364Z,17.25
2018-08-28T05:26:01.192Z,17.27
2018-08-28T05:28:29.835Z,17.29
2018-08-28T05:30:58.400Z,17.31
2018-08-28T05:33:27.099Z,17.38
2018-08-28T05:35:55.668Z,17.44
2018-08-28T05:38:24.227Z,17.44
2018-08-28T05:40:52.816Z,17.47
2018-08-28T05:43:21.364Z,17.51
2018-08-28T05:45:49.919Z,17.57
2018-08-28T05:48:18.852Z,17.64
2018-08-28T05:50:47.412Z,17.71
2018-08-28T05:53:15.960Z,17.79
2018-08-28T05:55:44.668Z,17.84
2018-08-28T05:58:13.215Z,17.92
2018-08-28T06:00:41.789Z,18.00
2018-08-28T06:03:10.644Z,18.04
2018-08-28T06:05:39.170Z,18.11
2018-08-28T06:08:07.815Z,18.17
2018-08-28T06:10:36.760Z,18.29
2018-08-28T06:13:05.348Z,18.41
2018-08-28T06:15:33.963Z,18.50
2018-08-28T06:18:02.653Z,18.63
2018-08-28T06:20:31.223Z,18.79
2018-08-28T06:22:59.811Z,18.85
2018-08-28T06:25:28.508Z,18.91
2018-08-28T06:27:57.068Z,18.94
2018-08-28T06:30:25.671Z,19.01
2018-08-28T06:32:54.231Z,19.05
2018-08-28T06:35:22.794Z,19.04
2018-08-28T06:37:51.352Z,19.05
2018-08-28T06:40:20.286Z,19.16
2018-08-28T06:42:48.834Z,19.29
2018-08-28T06:45:17.427Z,19.48
2018-08-28T06:47:46.019Z,19.72
2018-08-28T06:50:14.555Z,20.01
2018-08-28T06:52:43.099Z,20.38
2018-08-28T06:55:11.823Z,20.74
2018-08-28T06:57:40.375Z,20.99
2018-08-28T07:00:09.131Z,21.35
2018-08-28T07:02:38.307Z,21.74
2018-08-28T07:05:07.033Z,21.95
2018-08-28T07:07:35.571Z,22.18
2018-08-28T07:10:04.286Z,22.35
2018-08-28T07:12:32.884Z,22.51
2018-08-28T07:17:29.147Z,22.84
2018-08-28T07:19:57.973Z,23.15
2018-08-28T07:22:27.828Z,23.42
2018-08-28T07:24:57.056Z,23.70
2018-08-28T07:27:25.622Z,23.78
2018-08-28T07:29:54.191Z,23.83
2018-08-28T07:32:22.776Z,24.23
2018-08-28T07:34:51.339Z,24.43
2018-08-28T07:37:20.928Z,24.60
2018-08-28T07:39:49.672Z,24.58
2018-08-28T07:42:18.237Z,24.38
2018-08-28T07:44:46.791Z,24.82
2018-08-28T07:47:15.528Z,24.81
2018-08-28T07:49:44.095Z,25.25
2018-08-28T07:52:12.824Z,25.36
2018-08-28T07:54:41.635Z,25.55
2018-08-28T07:57:10.179Z,25.53
2018-08-28T07:59:38.717Z,25.38
2018-08-28T08:02:07.503Z,25.51
2018-08-28T08:04:36.639Z,25.86
2018-08-28T08:07:05.764Z,26.04
2018-08-28T08:09:34.348Z,26.22
2018-08-28T08:12:02.928Z,26.19
2018-08-28T08:14:31.475Z,26.31
2018-08-28T08:17:00.323Z,26.45
2018-08-28T08:19:28.872Z,26.59
2018-08-28T08:21:57.423Z,26.78
2018-08-28T08:24:26.419Z,26.71
2018-08-28T08:26:54.981Z,26.40
2018-08-28T08:29:23.535Z,26.84
2018-08-28T08:31:52.179Z,26.69
2018-08-28T08:34:20.731Z,26.83
2018-08-28T08:36:49.359Z,26.77
2018-08-28T08:39:18.227Z,26.25
2018-08-28T08:41:48.133Z,26.63
2018-08-28T08:44:17.160Z,26.89
2018-08-28T08:46:46.262Z,27.02
2018-08-28T08:49:15.314Z,27.01
2018-08-28T08:51:44.386Z,27.04
2018-08-28T08:54:13.861Z,27.24
2018-08-28T08:56:42.899Z,27.43
2018-08-28T08:59:11.956Z,28.01
2018-08-28T09:01:41.112Z,27.82
2018-08-28T09:04:10.171Z,28.31
2018-08-28T09:06:39.228Z,28.70
2018-08-28T09:09:08.356Z,28.80
2018-08-28T09:11:36.920Z,28.59
2018-08-28T09:14:05.475Z,28.62
2018-08-28T09:16:34.096Z,28.58
2018-08-28T09:19:02.987Z,28.95
2018-08-28T09:21:31.663Z,29.29
2018-08-28T09:24:00.252Z,29.27
2018-08-28T09:26:28.787Z,29.29
2018-08-28T09:28:57.327Z,29.49
2018-08-28T09:31:26.396Z,29.68
2018-08-28T09:33:55.153Z,29.62
2018-08-28T09:36:23.703Z,29.66
2018-08-28T09:38:52.578Z,30.27
2018-08-28T09:41:21.103Z,30.63
2018-08-28T09:43:49.721Z,30.92
2018-08-28T09:46:18.615Z,31.03
2018-08-28T09:48:47.163Z,30.92
2018-08-28T09:51:15.715Z,31.23
2018-08-28T09:53:44.300Z,31.32
2018-08-28T09:56:12.868Z,30.93
2018-08-28T09:58:41.432Z,31.51
2018-08-28T10:01:15.635Z,31.45
2018-08-28T10:03:44.189Z,31.62
2018-08-28T10:06:12.764Z,31.63
2018-08-28T10:08:41.551Z,31.75
2018-08-28T10:11:10.150Z,31.92
2018-08-28T10:13:38.744Z,31.74
2018-08-28T10:16:07.385Z,31.27
2018-08-28T10:18:35.935Z,31.79
2018-08-28T10:21:04.496Z,31.99
2018-08-28T10:23:33.075Z,32.49
2018-08-28T10:26:01.688Z,32.88
2018-08-28T10:28:30.228Z,32.72
2018-08-28T10:30:59.168Z,32.97
2018-08-28T10:33:27.823Z,33.07
2018-08-28T10:35:56.496Z,33.37
2018-08-28T10:38:25.323Z,33.40
2018-08-28T10:40:53.991Z,32.79
2018-08-28T10:43:22.540Z,33.10
2018-08-28T10:45:51.848Z,32.81
2018-08-28T10:48:20.492Z,32.29
2018-08-28T10:50:49.108Z,31.81
2018-08-28T10:53:17.819Z,30.84
2018-08-28T10:55:46.377Z,31.14
2018-08-28T10:58:14.952Z,31.06
2018-08-28T11:00:43.747Z,30.97
2018-08-28T11:03:12.447Z,31.15
2018-08-28T11:05:41.010Z,30.95
2018-08-28T11:08:09.886Z,31.02
2018-08-28T11:10:38.451Z,30.80
2018-08-28T11:13:07.129Z,30.47
2018-08-28T11:15:35.718Z,29.96
2018-08-28T11:18:04.288Z,29.78
2018-08-28T11:20:32.843Z,29.69
2018-08-28T11:23:02.260Z,30.31
2018-08-28T11:25:30.788Z,31.61
2018-08-28T11:27:59.347Z,33.33
2018-08-28T11:30:28.399Z,34.93
2018-08-28T11:32:57.151Z,36.55
2018-08-28T11:35:25.828Z,37.40
2018-08-28T11:37:54.727Z,38.96
2018-08-28T11:40:23.306Z,38.61
2018-08-28T11:42:51.987Z,38.80
2018-08-28T11:45:20.584Z,36.24
2018-08-28T11:47:49.172Z,35.68
2018-08-28T11:50:17.835Z,34.35
2018-08-28T11:52:46.549Z,32.65
2018-08-28T11:55:15.084Z,31.31
2018-08-28T11:57:43.783Z,30.63
2018-08-28T12:00:12.639Z,30.24
2018-08-28T12:02:41.205Z,29.96
2018-08-28T12:05:10.001Z,29.88
2018-08-28T12:07:38.876Z,29.82
2018-08-28T12:10:08.534Z,29.71
2018-08-28T12:12:37.480Z,29.74
2018-08-28T12:15:06.390Z,29.72
2018-08-28T12:17:34.956Z,29.54
2018-08-28T12:20:03.600Z,29.53
2018-08-28T12:22:32.498Z,29.45
2018-08-28T12:25:01.055Z,29.42
2018-08-28T12:27:29.622Z,29.41
2018-08-28T12:29:58.651Z,29.33
2018-08-28T12:32:27.207Z,28.59
2018-08-28T12:34:55.871Z,28.82
2018-08-28T12:37:24.668Z,28.92
2018-08-28T12:39:53.263Z,28.71
2018-08-28T12:42:21.815Z,28.70
2018-08-28T12:44:50.917Z,28.37
2018-08-28T12:47:19.464Z,28.51
2018-08-28T12:49:48.038Z,28.53
2018-08-28T12:52:16.727Z,28.59
2018-08-28T12:54:45.271Z,28.70
2018-08-28T12:57:13.935Z,28.76
2018-08-28T12:59:42.556Z,28.66
2018-08-28T13:02:11.205Z,28.61
2018-08-28T13:04:39.684Z,28.65
2018-08-28T13:07:08.443Z,28.52
2018-08-28T13:09:36.976Z,28.51
2018-08-28T13:12:05.563Z,28.55
2018-08-28T13:14:34.349Z,28.57
2018-08-28T13:17:02.843Z,28.52
2018-08-28T13:19:31.392Z,28.43
2018-08-28T13:22:00.282Z,28.35
2018-08-28T13:24:28.828Z,28.54
2018-08-28T13:26:57.385Z,28.69
2018-08-28T13:29:26.060Z,28.61
2018-08-28T13:31:54.607Z,28.30
2018-08-28T13:34:23.179Z,28.19
2018-08-28T13:36:51.897Z,28.16
2018-08-28T13:39:20.460Z,28.20
2018-08-28T13:41:49.025Z,28.11
2018-08-28T13:44:17.940Z,28.17
2018-08-28T13:46:46.492Z,28.10
2018-08-28T13:49:15.072Z,28.13
2018-08-28T13:51:43.740Z,28.11
2018-08-28T13:54:12.329Z,28.02
2018-08-28T13:56:40.872Z,27.91
2018-08-28T13:59:09.476Z,27.89
2018-08-28T14:01:38.016Z,27.95
2018-08-28T14:04:06.572Z,28.02
2018-08-28T14:06:35.271Z,28.08
2018-08-28T14:09:04.828Z,28.04
2018-08-28T14:11:33.428Z,28.07
2018-08-28T14:14:02.460Z,28.12
2018-08-28T14:16:30.847Z,28.12
2018-08-28T14:18:59.423Z,28.19
2018-08-28T14:21:28.028Z,28.12
2018-08-28T14:23:56.927Z,28.12
2018-08-28T14:26:25.498Z,28.08
2018-08-28T14:28:54.785Z,28.14
2018-08-28T14:31:23.283Z,28.17
2018-08-28T14:33:53.426Z,28.17
2018-08-28T14:36:22.516Z,28.10
2018-08-28T14:38:51.068Z,28.10
2018-08-28T14:41:19.631Z,28.12
2018-08-28T14:43:48.237Z,27.92
2018-08-28T14:46:16.787Z,27.97
2018-08-28T14:48:45.339Z,27.96
2018-08-28T14:51:13.999Z,28.10
2018-08-28T14:53:42.563Z,28.17
2018-08-28T14:56:11.127Z,28.12
2018-08-28T14:58:39.835Z,28.33
2018-08-28T15:01:08.413Z,28.38
2018-08-28T15:03:36.975Z,28.39
2018-08-28T15:06:05.610Z,28.21
2018-08-28T15:08:34.692Z,28.18
2018-08-28T15:11:03.740Z,28.27
2018-08-28T15:13:32.423Z,28.24
2018-08-28T15:16:00.993Z,28.25
2018-08-28T15:18:29.580Z,28.28
2018-08-28T15:20:58.219Z,28.24
2018-08-28T15:23:27.075Z,28.08
2018-08-28T15:25:55.635Z,28.05
2018-08-28T15:28:24.303Z,27.94
2018-08-28T15:30:52.904Z,27.84
2018-08-28T15:33:21.471Z,27.79
2018-08-28T15:35:50.584Z,27.72
2018-08-28T15:38:19.144Z,27.80
2018-08-28T15:40:47.700Z,27.77
2018-08-28T15:43:16.671Z,27.75
2018-08-28T15:45:45.244Z,27.79
2018-08-28T15:48:13.788Z,27.68
2018-08-28T15:50:42.452Z,27.67
2018-08-28T15:53:11.016Z,27.67
2018-08-28T15:55:39.601Z,27.68
2018-08-28T15:58:08.323Z,27.64
2018-08-28T16:00:36.863Z,27.59
2018-08-28T16:03:05.428Z,27.57
2018-08-28T16:05:34.008Z,27.49
2018-08-28T16:08:02.583Z,27.45
2018-08-28T16:10:31.132Z,27.42
2018-08-28T16:12:59.804Z,27.48
2018-08-28T16:15:28.365Z,27.47
2018-08-28T16:17:57.300Z,27.41
2018-08-28T16:20:25.988Z,27.27
2018-08-28T16:22:57.844Z,27.25
2018-08-28T16:25:26.432Z,27.32
2018-08-28T16:27:55.053Z,27.29
2018-08-28T16:30:23.622Z,27.27
2018-08-28T16:32:52.220Z,27.25
2018-08-28T16:35:20.895Z,27.26
2018-08-28T16:37:49.459Z,27.18
2018-08-28T16:40:18.114Z,27.17
2018-08-28T16:42:46.677Z,27.15
2018-08-28T16:45:15.247Z,27.14
2018-08-28T16:47:44.231Z,27.09
2018-08-28T16:50:12.820Z,27.07
2018-08-28T16:52:41.356Z,27.05
2018-08-28T16:55:10.042Z,27.05
2018-08-28T16:57:38.603Z,27.01
2018-08-28T17:00:08.088Z,26.98
2018-08-28T17:02:36.740Z,26.95
2018-08-28T17:05:05.395Z,26.90
2018-08-28T17:07:33.965Z,26.73
2018-08-28T17:10:02.784Z,26.73
2018-08-28T17:12:31.345Z,26.83
2018-08-28T17:14:59.957Z,26.84
2018-08-28T17:17:28.518Z,26.83
2018-08-28T17:19:57.128Z,26.75
2018-08-28T17:22:25.732Z,26.69
2018-08-28T17:24:54.407Z,26.69
2018-08-28T17:27:23.295Z,26.65
2018-08-28T17:29:51.908Z,26.61
2018-08-28T17:32:20.795Z,26.57
2018-08-28T17:34:49.336Z,26.50
2018-08-28T17:37:17.912Z,26.47
2018-08-28T17:39:46.487Z,26.42
2018-08-28T17:42:15.049Z,26.37
2018-08-28T17:44:43.595Z,26.32
2018-08-28T17:47:12.171Z,26.23
2018-08-28T17:49:40.787Z,26.13
2018-08-28T17:52:09.339Z,26.10
2018-08-28T17:54:37.995Z,26.02
2018-08-28T17:57:06.757Z,26.00
2018-08-28T17:59:35.224Z,25.96
2018-08-28T18:02:04.226Z,25.91
2018-08-28T18:04:32.788Z,25.85
2018-08-28T18:07:01.394Z,25.78
2018-08-28T18:09:30.384Z,25.74
2018-08-28T18:11:58.944Z,25.66
2018-08-28T18:14:27.544Z,25.58
2018-08-28T18:16:56.361Z,25.57
2018-08-28T18:19:25.057Z,25.50
2018-08-28T18:21:53.608Z,25.42
2018-08-28T18:24:23.446Z,25.34
2018-08-28T18:26:52.021Z,25.28
2018-08-28T18:29:20.568Z,25.25
2018-08-28T18:31:49.484Z,25.17
2018-08-28T18:34:18.027Z,25.08
2018-08-28T18:36:46.580Z,25.12
2018-08-28T18:39:15.193Z,25.07
2018-08-28T18:41:43.976Z,25.00
2018-08-28T18:44:12.572Z,24.93
2018-08-28T18:46:41.157Z,24.93
2018-08-28T18:49:11.106Z,24.87
2018-08-28T18:51:40.156Z,24.82
2018-08-28T18:54:08.868Z,24.69
2018-08-28T18:56:37.431Z,24.55
2018-08-28T18:59:06.007Z,24.42
2018-08-28T19:01:34.700Z,24.30
2018-08-28T19:04:04.020Z,24.20
2018-08-28T19:06:32.576Z,24.14
2018-08-28T19:09:01.307Z,24.06
2018-08-28T19:11:29.845Z,23.96
2018-08-28T19:13:58.401Z,23.88
2018-08-28T19:16:27.151Z,23.82
2018-08-28T19:18:55.703Z,23.73
2018-08-28T19:21:24.270Z,23.66
2018-08-28T19:23:53.135Z,23.62
2018-08-28T19:26:21.703Z,23.59
2018-08-28T19:28:50.487Z,23.58
2018-08-28T19:31:19.399Z,23.56
2018-08-28T19:33:48.072Z,23.56
2018-08-28T19:36:16.651Z,23.47
2018-08-28T19:38:45.396Z,23.40
2018-08-28T19:41:13.958Z,23.38
2018-08-28T19:43:42.523Z,23.37
2018-08-28T19:46:11.205Z,23.26
2018-08-28T19:48:39.772Z,23.18
2018-08-28T19:51:08.343Z,23.13
2018-08-28T19:53:37.205Z,23.06
2018-08-28T19:56:05.831Z,23.00
2018-08-28T19:58:34.411Z,22.92
2018-08-28T20:01:03.072Z,22.88
2018-08-28T20:03:31.667Z,22.82
2018-08-28T20:06:00.233Z,22.75
2018-08-28T20:08:28.852Z,22.75
2018-08-28T20:10:57.417Z,22.69
2018-08-28T20:13:25.979Z,22.65
2018-08-28T20:15:54.731Z,22.61
2018-08-28T20:18:23.287Z,22.58
2018-08-28T20:20:51.941Z,22.58
2018-08-28T20:23:20.642Z,22.55
2018-08-28T20:25:49.206Z,22.56
2018-08-28T20:28:17.763Z,22.56
2018-08-28T20:30:46.543Z,22.59
2018-08-28T20:33:15.099Z,22.62
2018-08-28T20:35:43.664Z,22.60
2018-08-28T20:38:12.607Z,22.60
2018-08-28T20:40:41.176Z,22.60
2018-08-28T20:43:09.751Z,22.52
2018-08-28T20:45:38.415Z,22.45
2018-08-28T20:48:07.132Z,22.40
2018-08-28T20:50:35.783Z,22.37
2018-08-28T20:53:04.527Z,22.24
2018-08-28T20:55:33.104Z,22.19
2018-08-28T20:58:01.753Z,22.10
2018-08-28T21:00:31.203Z,22.04
2018-08-28T21:02:59.868Z,21.98
2018-08-28T21:05:29.751Z,21.94
2018-08-28T21:08:00.445Z,21.85
2018-08-28T21:10:29.323Z,21.83
2018-08-28T21:12:58.029Z,21.84
2018-08-28T21:15:26.999Z,21.77
2018-08-28T21:17:55.556Z,21.82
2018-08-28T21:20:24.291Z,21.85
2018-08-28T21:22:52.977Z,21.85
2018-08-28T21:25:21.545Z,21.83
2018-08-28T21:27:50.103Z,21.79
2018-08-28T21:30:18.690Z,21.76
2018-08-28T21:32:47.288Z,21.73
2018-08-28T21:35:15.883Z,21.72
2018-08-28T21:37:44.507Z,21.64
2018-08-28T21:40:13.079Z,21.61
2018-08-28T21:42:41.639Z,21.57
2018-08-28T21:45:10.540Z,21.53
2018-08-28T21:47:39.215Z,21.50
2018-08-28T21:50:07.784Z,21.42
2018-08-28T21:52:36.449Z,21.38
2018-08-28T21:55:05.023Z,21.31
2018-08-28T21:57:33.696Z,21.29
2018-08-28T22:00:02.536Z,21.25
2018-08-28T22:02:31.215Z,21.17
2018-08-28T22:04:59.783Z,21.25
2018-08-28T22:07:33.619Z,21.31
2018-08-28T22:10:02.307Z,21.26
2018-08-28T22:12:30.871Z,21.21
2018-08-28T22:14:59.774Z,21.17
2018-08-28T22:17:28.958Z,21.10
2018-08-28T22:19:57.531Z,21.06
2018-08-28T22:22:26.214Z,21.00
2018-08-28T22:24:54.939Z,20.93
2018-08-28T22:27:23.772Z,20.89
2018-08-28T22:29:52.660Z,20.66
2018-08-28T22:32:21.335Z,20.52
2018-08-28T22:34:49.907Z,20.49
2018-08-28T22:37:18.901Z,20.45
2018-08-28T22:39:47.524Z,20.41
2018-08-28T22:42:16.080Z,20.34
2018-08-28T22:44:44.695Z,20.31
2018-08-28T22:47:13.256Z,20.27
2018-08-28T22:49:42.020Z,20.28
2018-08-28T22:52:10.761Z,20.28
2018-08-28T22:54:39.576Z,20.27
2018-08-28T22:57:08.652Z,20.24
2018-08-28T22:59:37.347Z,20.20
2018-08-28T23:02:06.028Z,20.11
2018-08-28T23:04:35.174Z,20.15
2018-08-28T23:07:03.860Z,20.16
2018-08-28T23:09:32.443Z,20.10
2018-08-28T23:12:00.991Z,20.06
2018-08-28T23:14:29.595Z,19.98
2018-08-28T23:16:58.397Z,19.95
2018-08-28T23:19:27.335Z,19.88
2018-08-28T23:21:56.459Z,19.86
2018-08-28T23:24:25.760Z,19.83
2018-08-28T23:26:54.803Z,19.83
2018-08-28T23:29:23.896Z,19.79
2018-08-28T23:31:52.971Z,19.74
2018-08-28T23:34:21.784Z,19.69
2018-08-28T23:36:50.412Z,19.58
2018-08-28T23:39:18.967Z,19.54
2018-08-28T23:41:47.548Z,19.42
2018-08-28T23:44:16.224Z,19.40
2018-08-28T23:46:44.796Z,19.33
2018-08-28T23:49:13.411Z,19.30
2018-08-28T23:51:44.527Z,19.28
2018-08-28T23:54:13.131Z,19.22
2018-08-28T23:56:41.687Z,19.28
2018-08-28T23:59:10.547Z,19.26
